sensor_id;sensor_type;location;lat;lon;timestamp;P1;durP1;ratioP1;P2;durP2;ratioP2
9940;SDS011;5009;50.656;7.188;2022-11-15T00:00:16;12.33;;;10.13;;
9940;SDS011;5009;50.656;7.188;2022-11-15T00:02:42;11.43;;;10.10;;
9940;SDS011;5009;50.656;7.188;2022-11-15T00:05:08;11.10;;;9.50;;
9940;SDS011;5009;50.656;7.188;2022-11-15T00:07:33;13.07;;;10.07;;
9940;SDS011;5009;50.656;7.188;2022-11-15T00:09:59;14.80;;;9.97;;
9940;SDS011;5009;50.656;7.188;2022-11-15T00:12:24;12.23;;;10.23;;
9940;SDS011;5009;50.656;7.188;2022-11-15T00:14:51;13.87;;;10.23;;
9940;SDS011;5009;50.656;7.188;2022-11-15T00:17:17;10.67;;;9.70;;
9940;SDS011;5009;50.656;7.188;2022-11-15T00:19:42;11.07;;;9.53;;
9940;SDS011;5009;50.656;7.188;2022-11-15T00:22:08;14.00;;;10.60;;
9940;SDS011;5009;50.656;7.188;2022-11-15T00:24:33;12.63;;;10.27;;
9940;SDS011;5009;50.656;7.188;2022-11-15T00:26:59;12.77;;;9.93;;
9940;SDS011;5009;50.656;7.188;2022-11-15T00:29:24;11.47;;;9.73;;
9940;SDS011;5009;50.656;7.188;2022-11-15T00:31:50;10.27;;;9.20;;
9940;SDS011;5009;50.656;7.188;2022-11-15T00:34:15;11.67;;;9.93;;
9940;SDS011;5009;50.656;7.188;2022-11-15T00:36:41;13.07;;;9.67;;
9940;SDS011;5009;50.656;7.188;2022-11-15T00:39:06;12.90;;;10.30;;
9940;SDS011;5009;50.656;7.188;2022-11-15T00:41:32;11.63;;;9.37;;
9940;SDS011;5009;50.656;7.188;2022-11-15T00:43:58;11.97;;;8.70;;
9940;SDS011;5009;50.656;7.188;2022-11-15T00:46:23;10.40;;;9.30;;
9940;SDS011;5009;50.656;7.188;2022-11-15T00:48:49;10.00;;;8.70;;
9940;SDS011;5009;50.656;7.188;2022-11-15T00:51:14;10.27;;;8.90;;
9940;SDS011;5009;50.656;7.188;2022-11-15T00:53:40;10.20;;;8.80;;
9940;SDS011;5009;50.656;7.188;2022-11-15T00:56:05;9.80;;;8.63;;
9940;SDS011;5009;50.656;7.188;2022-11-15T00:58:31;11.47;;;8.73;;
9940;SDS011;5009;50.656;7.188;2022-11-15T01:01:04;10.13;;;9.00;;
9940;SDS011;5009;50.656;7.188;2022-11-15T01:03:34;10.27;;;7.83;;
9940;SDS011;5009;50.656;7.188;2022-11-15T01:06:00;9.43;;;8.53;;
9940;SDS011;5009;50.656;7.188;2022-11-15T01:08:26;11.67;;;8.90;;
9940;SDS011;5009;50.656;7.188;2022-11-15T01:10:51;9.97;;;8.97;;
9940;SDS011;5009;50.656;7.188;2022-11-15T01:13:17;12.00;;;9.70;;
9940;SDS011;5009;50.656;7.188;2022-11-15T01:15:42;12.03;;;9.13;;
9940;SDS011;5009;50.656;7.188;2022-11-15T01:18:08;10.27;;;9.10;;
9940;SDS011;5009;50.656;7.188;2022-11-15T01:20:34;11.47;;;9.80;;
9940;SDS011;5009;50.656;7.188;2022-11-15T01:23:03;11.47;;;10.37;;
9940;SDS011;5009;50.656;7.188;2022-11-15T01:25:29;10.53;;;9.50;;
9940;SDS011;5009;50.656;7.188;2022-11-15T01:27:54;10.83;;;9.73;;
9940;SDS011;5009;50.656;7.188;2022-11-15T01:30:20;10.13;;;9.23;;
9940;SDS011;5009;50.656;7.188;2022-11-15T01:32:45;12.60;;;9.27;;
9940;SDS011;5009;50.656;7.188;2022-11-15T01:35:11;11.50;;;9.13;;
9940;SDS011;5009;50.656;7.188;2022-11-15T01:37:36;10.43;;;9.37;;
9940;SDS011;5009;50.656;7.188;2022-11-15T01:40:02;10.67;;;7.63;;
9940;SDS011;5009;50.656;7.188;2022-11-15T01:42:28;9.63;;;7.70;;
9940;SDS011;5009;50.656;7.188;2022-11-15T01:44:53;8.10;;;7.40;;
9940;SDS011;5009;50.656;7.188;2022-11-15T01:47:20;9.43;;;7.33;;
9940;SDS011;5009;50.656;7.188;2022-11-15T01:49:55;8.07;;;7.37;;
9940;SDS011;5009;50.656;7.188;2022-11-15T01:52:26;8.87;;;7.40;;
9940;SDS011;5009;50.656;7.188;2022-11-15T01:57:34;8.10;;;7.30;;
9940;SDS011;5009;50.656;7.188;2022-11-15T02:00:01;7.93;;;7.13;;
9940;SDS011;5009;50.656;7.188;2022-11-15T02:02:28;8.40;;;6.97;;
9940;SDS011;5009;50.656;7.188;2022-11-15T02:04:54;8.20;;;6.80;;
9940;SDS011;5009;50.656;7.188;2022-11-15T02:07:19;10.17;;;7.07;;
9940;SDS011;5009;50.656;7.188;2022-11-15T02:09:47;8.57;;;7.00;;
9940;SDS011;5009;50.656;7.188;2022-11-15T02:12:14;10.10;;;7.07;;
9940;SDS011;5009;50.656;7.188;2022-11-15T02:14:44;7.40;;;6.70;;
9940;SDS011;5009;50.656;7.188;2022-11-15T02:22:37;7.27;;;6.57;;
9940;SDS011;5009;50.656;7.188;2022-11-15T02:38:54;7.07;;;6.43;;
9940;SDS011;5009;50.656;7.188;2022-11-15T02:41:24;7.83;;;6.80;;
9940;SDS011;5009;50.656;7.188;2022-11-15T02:43:58;8.23;;;7.40;;
9940;SDS011;5009;50.656;7.188;2022-11-15T02:46:33;7.80;;;7.10;;
9940;SDS011;5009;50.656;7.188;2022-11-15T02:49:19;9.07;;;7.37;;
9940;SDS011;5009;50.656;7.188;2022-11-15T02:51:45;7.83;;;7.13;;
9940;SDS011;5009;50.656;7.188;2022-11-15T02:54:15;8.60;;;7.47;;
9940;SDS011;5009;50.656;7.188;2022-11-15T02:56:46;8.73;;;7.73;;
9940;SDS011;5009;50.656;7.188;2022-11-15T02:59:35;9.13;;;7.80;;
9940;SDS011;5009;50.656;7.188;2022-11-15T03:07:54;8.30;;;7.50;;
9940;SDS011;5009;50.656;7.188;2022-11-15T03:16:24;8.27;;;7.57;;
9940;SDS011;5009;50.656;7.188;2022-11-15T03:18:52;8.80;;;7.93;;
9940;SDS011;5009;50.656;7.188;2022-11-15T03:21:25;8.77;;;7.87;;
9940;SDS011;5009;50.656;7.188;2022-11-15T03:23:55;8.80;;;7.93;;
9940;SDS011;5009;50.656;7.188;2022-11-15T03:26:23;8.60;;;7.90;;
9940;SDS011;5009;50.656;7.188;2022-11-15T03:28:54;7.90;;;7.20;;
9940;SDS011;5009;50.656;7.188;2022-11-15T03:31:23;9.97;;;7.60;;
9940;SDS011;5009;50.656;7.188;2022-11-15T03:34:59;8.07;;;7.27;;
9940;SDS011;5009;50.656;7.188;2022-11-15T03:37:10;8.50;;;7.70;;
9940;SDS011;5009;50.656;7.188;2022-11-15T03:39:38;8.80;;;7.70;;
9940;SDS011;5009;50.656;7.188;2022-11-15T03:47:49;7.90;;;7.10;;
9940;SDS011;5009;50.656;7.188;2022-11-15T03:50:32;7.97;;;7.13;;
9940;SDS011;5009;50.656;7.188;2022-11-15T03:52:59;7.73;;;6.93;;
9940;SDS011;5009;50.656;7.188;2022-11-15T03:55:25;7.93;;;7.23;;
9940;SDS011;5009;50.656;7.188;2022-11-15T03:57:52;8.00;;;6.90;;
9940;SDS011;5009;50.656;7.188;2022-11-15T04:00:21;7.77;;;7.03;;
9940;SDS011;5009;50.656;7.188;2022-11-15T04:02:47;8.27;;;7.47;;
9940;SDS011;5009;50.656;7.188;2022-11-15T04:05:13;8.17;;;7.37;;
9940;SDS011;5009;50.656;7.188;2022-11-15T04:07:38;7.80;;;7.10;;
9940;SDS011;5009;50.656;7.188;2022-11-15T04:10:04;7.17;;;6.20;;
9940;SDS011;5009;50.656;7.188;2022-11-15T04:17:35;8.43;;;6.77;;
9940;SDS011;5009;50.656;7.188;2022-11-15T04:20:05;7.13;;;6.53;;
9940;SDS011;5009;50.656;7.188;2022-11-15T04:22:52;6.70;;;6.10;;
9940;SDS011;5009;50.656;7.188;2022-11-15T04:25:37;6.93;;;6.33;;
9940;SDS011;5009;50.656;7.188;2022-11-15T04:28:03;7.10;;;6.40;;
9940;SDS011;5009;50.656;7.188;2022-11-15T04:30:28;6.43;;;5.70;;
9940;SDS011;5009;50.656;7.188;2022-11-15T04:32:54;6.63;;;6.03;;
9940;SDS011;5009;50.656;7.188;2022-11-15T04:35:19;6.13;;;5.60;;
9940;SDS011;5009;50.656;7.188;2022-11-15T04:37:45;5.90;;;5.30;;
9940;SDS011;5009;50.656;7.188;2022-11-15T04:40:11;5.73;;;5.13;;
9940;SDS011;5009;50.656;7.188;2022-11-15T04:42:36;5.57;;;5.13;;
9940;SDS011;5009;50.656;7.188;2022-11-15T04:45:02;5.53;;;5.03;;
9940;SDS011;5009;50.656;7.188;2022-11-15T04:47:27;5.80;;;5.30;;
9940;SDS011;5009;50.656;7.188;2022-11-15T04:49:54;5.37;;;4.80;;
9940;SDS011;5009;50.656;7.188;2022-11-15T04:52:20;5.60;;;5.10;;
9940;SDS011;5009;50.656;7.188;2022-11-15T04:54:45;5.20;;;4.80;;
9940;SDS011;5009;50.656;7.188;2022-11-15T04:57:11;5.57;;;4.80;;
9940;SDS011;5009;50.656;7.188;2022-11-15T04:59:36;5.67;;;5.07;;
9940;SDS011;5009;50.656;7.188;2022-11-15T05:02:02;6.80;;;4.77;;
9940;SDS011;5009;50.656;7.188;2022-11-15T05:04:27;4.93;;;4.53;;
9940;SDS011;5009;50.656;7.188;2022-11-15T05:06:53;5.37;;;4.87;;
9940;SDS011;5009;50.656;7.188;2022-11-15T05:09:19;5.13;;;4.73;;
9940;SDS011;5009;50.656;7.188;2022-11-15T05:11:45;5.47;;;4.73;;
9940;SDS011;5009;50.656;7.188;2022-11-15T05:14:12;5.07;;;4.67;;
9940;SDS011;5009;50.656;7.188;2022-11-15T05:16:38;4.77;;;4.10;;
9940;SDS011;5009;50.656;7.188;2022-11-15T05:19:03;9.63;;;4.67;;
9940;SDS011;5009;50.656;7.188;2022-11-15T05:21:30;5.47;;;4.60;;
9940;SDS011;5009;50.656;7.188;2022-11-15T05:23:56;4.40;;;4.00;;
9940;SDS011;5009;50.656;7.188;2022-11-15T05:26:22;6.83;;;4.70;;
9940;SDS011;5009;50.656;7.188;2022-11-15T05:28:52;5.07;;;4.67;;
9940;SDS011;5009;50.656;7.188;2022-11-15T05:31:22;5.63;;;4.60;;
9940;SDS011;5009;50.656;7.188;2022-11-15T05:33:48;4.67;;;4.23;;
9940;SDS011;5009;50.656;7.188;2022-11-15T05:36:25;5.03;;;4.63;;
9940;SDS011;5009;50.656;7.188;2022-11-15T05:39:01;4.93;;;4.53;;
9940;SDS011;5009;50.656;7.188;2022-11-15T05:41:35;4.37;;;3.80;;
9940;SDS011;5009;50.656;7.188;2022-11-15T05:44:06;4.87;;;4.43;;
9940;SDS011;5009;50.656;7.188;2022-11-15T05:46:34;4.70;;;4.30;;
9940;SDS011;5009;50.656;7.188;2022-11-15T05:49:00;5.70;;;4.30;;
9940;SDS011;5009;50.656;7.188;2022-11-15T05:51:26;4.50;;;4.10;;
9940;SDS011;5009;50.656;7.188;2022-11-15T05:53:54;4.27;;;3.97;;
9940;SDS011;5009;50.656;7.188;2022-11-15T05:56:23;4.20;;;3.80;;
9940;SDS011;5009;50.656;7.188;2022-11-15T05:58:49;5.40;;;3.47;;
9940;SDS011;5009;50.656;7.188;2022-11-15T06:01:16;4.17;;;3.77;;
9940;SDS011;5009;50.656;7.188;2022-11-15T06:03:41;5.77;;;3.97;;
9940;SDS011;5009;50.656;7.188;2022-11-15T06:06:07;4.00;;;3.70;;
9940;SDS011;5009;50.656;7.188;2022-11-15T06:08:33;3.80;;;3.40;;
9940;SDS011;5009;50.656;7.188;2022-11-15T06:11:02;3.83;;;3.53;;
9940;SDS011;5009;50.656;7.188;2022-11-15T06:13:29;5.30;;;3.50;;
9940;SDS011;5009;50.656;7.188;2022-11-15T06:15:57;3.87;;;3.53;;
9940;SDS011;5009;50.656;7.188;2022-11-15T06:18:23;4.10;;;3.43;;
9940;SDS011;5009;50.656;7.188;2022-11-15T06:20:49;4.13;;;3.60;;
9940;SDS011;5009;50.656;7.188;2022-11-15T06:23:15;3.67;;;3.37;;
9940;SDS011;5009;50.656;7.188;2022-11-15T06:25:40;3.57;;;3.30;;
9940;SDS011;5009;50.656;7.188;2022-11-15T06:28:06;3.70;;;3.40;;
9940;SDS011;5009;50.656;7.188;2022-11-15T06:30:31;3.67;;;3.37;;
9940;SDS011;5009;50.656;7.188;2022-11-15T06:33:01;3.23;;;3.03;;
9940;SDS011;5009;50.656;7.188;2022-11-15T06:35:29;3.13;;;2.83;;
9940;SDS011;5009;50.656;7.188;2022-11-15T06:37:55;3.63;;;3.33;;
9940;SDS011;5009;50.656;7.188;2022-11-15T06:40:26;3.30;;;3.00;;
9940;SDS011;5009;50.656;7.188;2022-11-15T06:42:56;3.27;;;2.97;;
9940;SDS011;5009;50.656;7.188;2022-11-15T06:45:23;3.33;;;3.03;;
9940;SDS011;5009;50.656;7.188;2022-11-15T06:47:48;3.90;;;3.20;;
9940;SDS011;5009;50.656;7.188;2022-11-15T06:50:14;3.20;;;2.90;;
9940;SDS011;5009;50.656;7.188;2022-11-15T06:52:39;4.00;;;3.13;;
9940;SDS011;5009;50.656;7.188;2022-11-15T06:55:05;3.40;;;3.10;;
9940;SDS011;5009;50.656;7.188;2022-11-15T06:57:31;3.10;;;2.90;;
9940;SDS011;5009;50.656;7.188;2022-11-15T06:59:57;4.00;;;3.20;;
9940;SDS011;5009;50.656;7.188;2022-11-15T07:02:22;3.50;;;2.87;;
9940;SDS011;5009;50.656;7.188;2022-11-15T07:04:48;4.27;;;3.13;;
9940;SDS011;5009;50.656;7.188;2022-11-15T07:07:14;3.47;;;3.17;;
9940;SDS011;5009;50.656;7.188;2022-11-15T07:09:39;3.97;;;3.23;;
9940;SDS011;5009;50.656;7.188;2022-11-15T07:12:05;3.63;;;3.27;;
9940;SDS011;5009;50.656;7.188;2022-11-15T07:14:30;4.00;;;3.40;;
9940;SDS011;5009;50.656;7.188;2022-11-15T07:16:56;3.80;;;3.37;;
9940;SDS011;5009;50.656;7.188;2022-11-15T07:19:21;3.87;;;3.53;;
9940;SDS011;5009;50.656;7.188;2022-11-15T07:21:47;4.03;;;3.60;;
9940;SDS011;5009;50.656;7.188;2022-11-15T07:24:13;4.50;;;4.10;;
9940;SDS011;5009;50.656;7.188;2022-11-15T07:26:38;5.67;;;3.93;;
9940;SDS011;5009;50.656;7.188;2022-11-15T07:29:04;4.17;;;3.77;;
9940;SDS011;5009;50.656;7.188;2022-11-15T07:31:29;4.23;;;3.80;;
9940;SDS011;5009;50.656;7.188;2022-11-15T07:33:55;6.80;;;3.50;;
9940;SDS011;5009;50.656;7.188;2022-11-15T07:36:21;4.63;;;3.93;;
9940;SDS011;5009;50.656;7.188;2022-11-15T07:38:46;5.60;;;3.90;;
9940;SDS011;5009;50.656;7.188;2022-11-15T07:41:12;5.53;;;4.00;;
9940;SDS011;5009;50.656;7.188;2022-11-15T07:43:37;6.33;;;4.00;;
9940;SDS011;5009;50.656;7.188;2022-11-15T07:46:07;5.33;;;3.87;;
9940;SDS011;5009;50.656;7.188;2022-11-15T07:48:34;5.77;;;3.87;;
9940;SDS011;5009;50.656;7.188;2022-11-15T07:51:05;4.07;;;3.67;;
9940;SDS011;5009;50.656;7.188;2022-11-15T07:53:31;4.00;;;3.60;;
9940;SDS011;5009;50.656;7.188;2022-11-15T07:55:56;5.30;;;4.00;;
9940;SDS011;5009;50.656;7.188;2022-11-15T07:58:22;4.33;;;3.50;;
9940;SDS011;5009;50.656;7.188;2022-11-15T08:00:47;5.13;;;3.40;;
9940;SDS011;5009;50.656;7.188;2022-11-15T08:03:14;6.40;;;3.93;;
9940;SDS011;5009;50.656;7.188;2022-11-15T08:05:41;4.40;;;3.60;;
9940;SDS011;5009;50.656;7.188;2022-11-15T08:08:08;4.17;;;3.40;;
9940;SDS011;5009;50.656;7.188;2022-11-15T08:10:35;3.93;;;3.57;;
9940;SDS011;5009;50.656;7.188;2022-11-15T08:13:01;4.57;;;3.53;;
9940;SDS011;5009;50.656;7.188;2022-11-15T08:15:34;3.53;;;3.23;;
9940;SDS011;5009;50.656;7.188;2022-11-15T08:18:02;3.73;;;3.43;;
9940;SDS011;5009;50.656;7.188;2022-11-15T08:20:30;3.20;;;3.00;;
9940;SDS011;5009;50.656;7.188;2022-11-15T08:22:56;3.67;;;3.37;;
9940;SDS011;5009;50.656;7.188;2022-11-15T08:25:23;3.37;;;2.90;;
9940;SDS011;5009;50.656;7.188;2022-11-15T08:27:52;3.90;;;3.37;;
9940;SDS011;5009;50.656;7.188;2022-11-15T08:30:18;3.67;;;3.13;;
9940;SDS011;5009;50.656;7.188;2022-11-15T08:32:44;4.80;;;3.00;;
9940;SDS011;5009;50.656;7.188;2022-11-15T08:35:10;3.57;;;2.80;;
9940;SDS011;5009;50.656;7.188;2022-11-15T08:37:36;5.17;;;3.27;;
9940;SDS011;5009;50.656;7.188;2022-11-15T08:40:01;3.53;;;3.00;;
9940;SDS011;5009;50.656;7.188;2022-11-15T08:42:27;2.90;;;2.67;;
9940;SDS011;5009;50.656;7.188;2022-11-15T08:44:53;2.90;;;2.70;;
9940;SDS011;5009;50.656;7.188;2022-11-15T08:47:19;3.20;;;2.90;;
9940;SDS011;5009;50.656;7.188;2022-11-15T08:49:44;3.40;;;3.10;;
9940;SDS011;5009;50.656;7.188;2022-11-15T08:52:10;2.90;;;2.70;;
9940;SDS011;5009;50.656;7.188;2022-11-15T08:54:35;3.33;;;2.67;;
9940;SDS011;5009;50.656;7.188;2022-11-15T08:57:01;3.27;;;2.97;;
9940;SDS011;5009;50.656;7.188;2022-11-15T08:59:26;2.97;;;2.60;;
9940;SDS011;5009;50.656;7.188;2022-11-15T09:01:52;2.93;;;2.73;;
9940;SDS011;5009;50.656;7.188;2022-11-15T09:04:18;3.10;;;2.90;;
9940;SDS011;5009;50.656;7.188;2022-11-15T09:06:43;3.20;;;2.67;;
9940;SDS011;5009;50.656;7.188;2022-11-15T09:09:09;3.03;;;2.70;;
9940;SDS011;5009;50.656;7.188;2022-11-15T09:11:34;3.00;;;2.70;;
9940;SDS011;5009;50.656;7.188;2022-11-15T09:14:00;6.73;;;2.83;;
9940;SDS011;5009;50.656;7.188;2022-11-15T09:16:25;2.90;;;2.27;;
9940;SDS011;5009;50.656;7.188;2022-11-15T09:18:52;2.87;;;2.47;;
9940;SDS011;5009;50.656;7.188;2022-11-15T09:21:18;2.10;;;1.93;;
9940;SDS011;5009;50.656;7.188;2022-11-15T09:23:44;4.30;;;2.30;;
9940;SDS011;5009;50.656;7.188;2022-11-15T09:26:09;3.37;;;2.07;;
9940;SDS011;5009;50.656;7.188;2022-11-15T09:28:35;2.27;;;1.90;;
9940;SDS011;5009;50.656;7.188;2022-11-15T09:31:02;2.27;;;1.87;;
9940;SDS011;5009;50.656;7.188;2022-11-15T09:33:29;2.93;;;2.30;;
9940;SDS011;5009;50.656;7.188;2022-11-15T09:35:59;4.90;;;1.70;;
9940;SDS011;5009;50.656;7.188;2022-11-15T09:38:26;1.67;;;1.50;;
9940;SDS011;5009;50.656;7.188;2022-11-15T09:40:53;3.10;;;1.50;;
9940;SDS011;5009;50.656;7.188;2022-11-15T09:49:23;3.03;;;1.80;;
9940;SDS011;5009;50.656;7.188;2022-11-15T09:51:49;1.70;;;1.50;;
9940;SDS011;5009;50.656;7.188;2022-11-15T09:54:28;2.43;;;1.27;;
9940;SDS011;5009;50.656;7.188;2022-11-15T09:56:56;4.60;;;1.80;;
9940;SDS011;5009;50.656;7.188;2022-11-15T10:02:58;1.60;;;1.37;;
9940;SDS011;5009;50.656;7.188;2022-11-15T10:05:41;1.90;;;1.40;;
9940;SDS011;5009;50.656;7.188;2022-11-15T10:10:44;1.63;;;1.30;;
9940;SDS011;5009;50.656;7.188;2022-11-15T10:13:19;2.83;;;1.30;;
9940;SDS011;5009;50.656;7.188;2022-11-15T10:15:48;6.07;;;1.73;;
9940;SDS011;5009;50.656;7.188;2022-11-15T10:20:58;1.97;;;1.10;;
9940;SDS011;5009;50.656;7.188;2022-11-15T10:23:25;1.83;;;1.30;;
9940;SDS011;5009;50.656;7.188;2022-11-15T10:25:55;4.03;;;1.30;;
9940;SDS011;5009;50.656;7.188;2022-11-15T10:28:25;2.37;;;1.30;;
9940;SDS011;5009;50.656;7.188;2022-11-15T10:30:56;3.77;;;1.40;;
9940;SDS011;5009;50.656;7.188;2022-11-15T10:41:14;5.30;;;1.67;;
9940;SDS011;5009;50.656;7.188;2022-11-15T10:44:02;2.80;;;1.57;;
9940;SDS011;5009;50.656;7.188;2022-11-15T10:46:47;2.57;;;1.43;;
9940;SDS011;5009;50.656;7.188;2022-11-15T10:49:20;2.70;;;1.17;;
9940;SDS011;5009;50.656;7.188;2022-11-15T10:54:45;3.67;;;1.27;;
9940;SDS011;5009;50.656;7.188;2022-11-15T10:57:21;1.70;;;1.20;;
9940;SDS011;5009;50.656;7.188;2022-11-15T10:59:51;2.60;;;1.20;;
9940;SDS011;5009;50.656;7.188;2022-11-15T11:02:35;2.23;;;1.10;;
9940;SDS011;5009;50.656;7.188;2022-11-15T11:05:27;3.63;;;1.37;;
9940;SDS011;5009;50.656;7.188;2022-11-15T11:07:59;4.07;;;1.20;;
9940;SDS011;5009;50.656;7.188;2022-11-15T11:10:34;1.80;;;1.00;;
9940;SDS011;5009;50.656;7.188;2022-11-15T11:16:08;3.53;;;1.57;;
9940;SDS011;5009;50.656;7.188;2022-11-15T11:18:43;4.30;;;1.60;;
9940;SDS011;5009;50.656;7.188;2022-11-15T11:21:13;2.70;;;1.77;;
9940;SDS011;5009;50.656;7.188;2022-11-15T11:23:50;1.90;;;1.63;;
9940;SDS011;5009;50.656;7.188;2022-11-15T11:32:10;2.83;;;1.30;;
9940;SDS011;5009;50.656;7.188;2022-11-15T11:37:48;3.03;;;1.73;;
9940;SDS011;5009;50.656;7.188;2022-11-15T11:40:29;1.87;;;1.60;;
9940;SDS011;5009;50.656;7.188;2022-11-15T11:43:15;1.90;;;1.80;;
9940;SDS011;5009;50.656;7.188;2022-11-15T11:49:15;2.27;;;1.93;;
9940;SDS011;5009;50.656;7.188;2022-11-15T11:51:54;4.13;;;2.10;;
9940;SDS011;5009;50.656;7.188;2022-11-15T11:54:42;4.03;;;2.10;;
9940;SDS011;5009;50.656;7.188;2022-11-15T11:57:21;2.87;;;1.80;;
9940;SDS011;5009;50.656;7.188;2022-11-15T11:59:55;3.23;;;2.47;;
9940;SDS011;5009;50.656;7.188;2022-11-15T12:02:46;4.53;;;2.23;;
9940;SDS011;5009;50.656;7.188;2022-11-15T12:05:38;2.87;;;2.43;;
9940;SDS011;5009;50.656;7.188;2022-11-15T12:08:18;2.93;;;2.10;;
9940;SDS011;5009;50.656;7.188;2022-11-15T12:11:17;4.87;;;2.40;;
9940;SDS011;5009;50.656;7.188;2022-11-15T12:13:50;4.60;;;2.80;;
9940;SDS011;5009;50.656;7.188;2022-11-15T12:16:26;3.07;;;2.67;;
9940;SDS011;5009;50.656;7.188;2022-11-15T12:18:58;2.97;;;2.67;;
9940;SDS011;5009;50.656;7.188;2022-11-15T12:24:12;6.27;;;2.90;;
9940;SDS011;5009;50.656;7.188;2022-11-15T12:26:47;3.07;;;2.77;;
9940;SDS011;5009;50.656;7.188;2022-11-15T12:29:20;3.73;;;2.90;;
9940;SDS011;5009;50.656;7.188;2022-11-15T12:31:53;2.87;;;2.67;;
9940;SDS011;5009;50.656;7.188;2022-11-15T12:36:47;3.57;;;2.87;;
9940;SDS011;5009;50.656;7.188;2022-11-15T12:39:16;3.00;;;2.67;;
9940;SDS011;5009;50.656;7.188;2022-11-15T12:41:43;4.63;;;2.80;;
9940;SDS011;5009;50.656;7.188;2022-11-15T12:47:02;3.47;;;2.70;;
9940;SDS011;5009;50.656;7.188;2022-11-15T12:49:47;2.97;;;2.70;;
9940;SDS011;5009;50.656;7.188;2022-11-15T12:52:13;4.80;;;3.00;;
9940;SDS011;5009;50.656;7.188;2022-11-15T13:22:41;3.43;;;2.77;;
9940;SDS011;5009;50.656;7.188;2022-11-15T13:28:11;4.93;;;3.33;;
9940;SDS011;5009;50.656;7.188;2022-11-15T13:33:52;3.20;;;2.90;;
9940;SDS011;5009;50.656;7.188;2022-11-15T13:36:23;5.70;;;2.97;;
9940;SDS011;5009;50.656;7.188;2022-11-15T13:41:51;3.93;;;3.07;;
9940;SDS011;5009;50.656;7.188;2022-11-15T13:44:24;4.83;;;2.87;;
9940;SDS011;5009;50.656;7.188;2022-11-15T13:49:49;4.73;;;2.63;;
9940;SDS011;5009;50.656;7.188;2022-11-15T13:52:15;4.03;;;2.57;;
9940;SDS011;5009;50.656;7.188;2022-11-15T13:54:47;2.90;;;2.70;;
9940;SDS011;5009;50.656;7.188;2022-11-15T13:57:26;2.83;;;2.43;;
9940;SDS011;5009;50.656;7.188;2022-11-15T13:59:55;2.53;;;2.33;;
9940;SDS011;5009;50.656;7.188;2022-11-15T14:02:29;3.10;;;2.37;;
9940;SDS011;5009;50.656;7.188;2022-11-15T14:05:19;2.90;;;2.20;;
9940;SDS011;5009;50.656;7.188;2022-11-15T14:10:32;3.07;;;1.97;;
9940;SDS011;5009;50.656;7.188;2022-11-15T14:13:00;2.93;;;2.27;;
9940;SDS011;5009;50.656;7.188;2022-11-15T14:15:34;2.97;;;2.00;;
9940;SDS011;5009;50.656;7.188;2022-11-15T14:18:02;2.13;;;1.93;;
9940;SDS011;5009;50.656;7.188;2022-11-15T14:20:33;2.63;;;2.37;;
9940;SDS011;5009;50.656;7.188;2022-11-15T14:23:00;4.50;;;2.17;;
9940;SDS011;5009;50.656;7.188;2022-11-15T14:25:52;2.80;;;1.80;;
9940;SDS011;5009;50.656;7.188;2022-11-15T14:30:48;2.73;;;2.10;;
9940;SDS011;5009;50.656;7.188;2022-11-15T14:35:48;2.20;;;1.70;;
9940;SDS011;5009;50.656;7.188;2022-11-15T14:38:14;2.00;;;1.80;;
9940;SDS011;5009;50.656;7.188;2022-11-15T14:40:40;3.63;;;2.10;;
9940;SDS011;5009;50.656;7.188;2022-11-15T14:43:08;1.80;;;1.70;;
9940;SDS011;5009;50.656;7.188;2022-11-15T14:45:36;3.17;;;1.80;;
9940;SDS011;5009;50.656;7.188;2022-11-15T14:48:02;2.03;;;1.60;;
9940;SDS011;5009;50.656;7.188;2022-11-15T14:50:27;1.93;;;1.73;;
9940;SDS011;5009;50.656;7.188;2022-11-15T14:52:53;1.80;;;1.70;;
9940;SDS011;5009;50.656;7.188;2022-11-15T14:55:20;1.83;;;1.73;;
9940;SDS011;5009;50.656;7.188;2022-11-15T14:57:48;1.97;;;1.87;;
9940;SDS011;5009;50.656;7.188;2022-11-15T15:00:14;3.53;;;2.70;;
9940;SDS011;5009;50.656;7.188;2022-11-15T15:02:41;2.80;;;1.90;;
9940;SDS011;5009;50.656;7.188;2022-11-15T15:07:44;3.57;;;2.70;;
9940;SDS011;5009;50.656;7.188;2022-11-15T15:10:11;2.17;;;1.97;;
9940;SDS011;5009;50.656;7.188;2022-11-15T15:12:37;3.00;;;2.20;;
9940;SDS011;5009;50.656;7.188;2022-11-15T15:15:03;3.87;;;2.20;;
9940;SDS011;5009;50.656;7.188;2022-11-15T15:17:29;3.27;;;2.97;;
9940;SDS011;5009;50.656;7.188;2022-11-15T15:19:55;2.77;;;2.20;;
9940;SDS011;5009;50.656;7.188;2022-11-15T15:22:20;3.53;;;2.60;;
9940;SDS011;5009;50.656;7.188;2022-11-15T15:24:50;4.13;;;2.20;;
9940;SDS011;5009;50.656;7.188;2022-11-15T15:27:15;3.13;;;2.67;;
9940;SDS011;5009;50.656;7.188;2022-11-15T15:29:41;2.23;;;2.10;;
9940;SDS011;5009;50.656;7.188;2022-11-15T15:32:07;2.40;;;2.20;;
9940;SDS011;5009;50.656;7.188;2022-11-15T15:34:33;2.53;;;2.00;;
9940;SDS011;5009;50.656;7.188;2022-11-15T15:39:51;2.67;;;2.27;;
9940;SDS011;5009;50.656;7.188;2022-11-15T15:42:18;2.40;;;2.20;;
9940;SDS011;5009;50.656;7.188;2022-11-15T15:44:45;1.90;;;1.80;;
9940;SDS011;5009;50.656;7.188;2022-11-15T15:47:12;2.13;;;1.93;;
9940;SDS011;5009;50.656;7.188;2022-11-15T15:49:45;4.60;;;2.70;;
9940;SDS011;5009;50.656;7.188;2022-11-15T15:52:11;3.33;;;2.30;;
9940;SDS011;5009;50.656;7.188;2022-11-15T15:54:36;4.07;;;2.57;;
9940;SDS011;5009;50.656;7.188;2022-11-15T15:57:02;3.40;;;2.70;;
9940;SDS011;5009;50.656;7.188;2022-11-15T15:59:28;2.97;;;2.43;;
9940;SDS011;5009;50.656;7.188;2022-11-15T16:01:53;3.03;;;2.70;;
9940;SDS011;5009;50.656;7.188;2022-11-15T16:04:19;4.37;;;2.70;;
9940;SDS011;5009;50.656;7.188;2022-11-15T16:06:44;2.60;;;2.40;;
9940;SDS011;5009;50.656;7.188;2022-11-15T16:09:12;2.87;;;2.57;;
9940;SDS011;5009;50.656;7.188;2022-11-15T16:11:39;3.33;;;2.93;;
9940;SDS011;5009;50.656;7.188;2022-11-15T16:14:05;3.90;;;2.83;;
9940;SDS011;5009;50.656;7.188;2022-11-15T16:16:30;2.60;;;2.40;;
9940;SDS011;5009;50.656;7.188;2022-11-15T16:18:56;2.70;;;2.47;;
9940;SDS011;5009;50.656;7.188;2022-11-15T16:21:22;2.67;;;2.47;;
9940;SDS011;5009;50.656;7.188;2022-11-15T16:23:48;3.10;;;2.50;;
9940;SDS011;5009;50.656;7.188;2022-11-15T16:26:20;3.03;;;2.73;;
9940;SDS011;5009;50.656;7.188;2022-11-15T16:28:49;3.90;;;2.70;;
9940;SDS011;5009;50.656;7.188;2022-11-15T16:31:14;4.10;;;2.80;;
9940;SDS011;5009;50.656;7.188;2022-11-15T16:33:43;2.93;;;2.63;;
9940;SDS011;5009;50.656;7.188;2022-11-15T16:38:47;3.43;;;3.13;;
9940;SDS011;5009;50.656;7.188;2022-11-15T16:41:13;3.33;;;3.03;;
9940;SDS011;5009;50.656;7.188;2022-11-15T16:43:42;3.30;;;3.00;;
9940;SDS011;5009;50.656;7.188;2022-11-15T16:48:42;3.23;;;2.90;;
9940;SDS011;5009;50.656;7.188;2022-11-15T16:51:08;3.77;;;3.07;;
9940;SDS011;5009;50.656;7.188;2022-11-15T16:53:34;3.03;;;2.73;;
9940;SDS011;5009;50.656;7.188;2022-11-15T16:56:00;3.87;;;3.10;;
9940;SDS011;5009;50.656;7.188;2022-11-15T16:58:25;3.27;;;3.00;;
9940;SDS011;5009;50.656;7.188;2022-11-15T17:00:51;2.90;;;2.70;;
9940;SDS011;5009;50.656;7.188;2022-11-15T17:03:18;3.27;;;2.87;;
9940;SDS011;5009;50.656;7.188;2022-11-15T17:05:46;3.63;;;3.30;;
9940;SDS011;5009;50.656;7.188;2022-11-15T17:08:11;3.50;;;3.07;;
9940;SDS011;5009;50.656;7.188;2022-11-15T17:10:40;3.43;;;3.13;;
9940;SDS011;5009;50.656;7.188;2022-11-15T17:13:07;2.90;;;2.70;;
9940;SDS011;5009;50.656;7.188;2022-11-15T17:15:35;3.83;;;3.10;;
9940;SDS011;5009;50.656;7.188;2022-11-15T17:18:01;4.93;;;3.10;;
9940;SDS011;5009;50.656;7.188;2022-11-15T17:20:26;3.63;;;3.27;;
9940;SDS011;5009;50.656;7.188;2022-11-15T17:22:52;3.17;;;2.97;;
9940;SDS011;5009;50.656;7.188;2022-11-15T17:25:18;3.43;;;3.03;;
9940;SDS011;5009;50.656;7.188;2022-11-15T17:27:44;3.37;;;3.10;;
9940;SDS011;5009;50.656;7.188;2022-11-15T17:30:11;5.10;;;3.20;;
9940;SDS011;5009;50.656;7.188;2022-11-15T17:32:39;3.47;;;3.17;;
9940;SDS011;5009;50.656;7.188;2022-11-15T17:35:05;3.93;;;3.40;;
9940;SDS011;5009;50.656;7.188;2022-11-15T17:37:31;3.37;;;3.07;;
9940;SDS011;5009;50.656;7.188;2022-11-15T17:39:58;3.33;;;3.10;;
9940;SDS011;5009;50.656;7.188;2022-11-15T17:42:23;3.27;;;3.07;;
9940;SDS011;5009;50.656;7.188;2022-11-15T17:44:49;3.93;;;3.50;;
9940;SDS011;5009;50.656;7.188;2022-11-15T17:47:14;3.90;;;3.50;;
9940;SDS011;5009;50.656;7.188;2022-11-15T17:49:40;5.00;;;3.83;;
9940;SDS011;5009;50.656;7.188;2022-11-15T17:52:06;5.47;;;4.67;;